Coalmont, Colorado
Current Conditions -  °F | °C
As of 6:15 PM on Sunday 23 Nov 2014 (Local Time) from K33V Reporting Station
Scattered Clouds Scattered Clouds  
Wind Chill:   Ceiling: Unl
Heat Index: 16°   Visibility: 10mi
Dew Point: 12°   Wind: 12mph
Humidity: 86%   Direction: 280°W
Pressure: 29.9"   Gusts: NA
Location:  40.56°N, 106.45°W
Report Text: K33V 240115Z AUTO 28010KT 10SM SCT007 SCT055 SCT065 M09/M11 A2990 RMK AO2
Loading
Personal Weather Stations






























Interactive Weather Map New forecast layout! Learn more

10-Day Weather Forecast

Advertisements
Track Severe Weather on mobile